Terminal Aerodrome Forecast
Issued by NWS Pocatello, ID

Home | Current Version | Previous Version | Text Only | Print | Product List | Glossary On
Versions: 1 2 3 4 5 6 7 8 9 10 11 12 13
000
FTUS45 KPIH 301727
TAFBYI
TAF
KBYI 301727Z 3018/3118 26009KT P6SM VCTS FEW080CB BKN120
     FM310200 22007KT P6SM FEW120
     FM311600 24012G20KT P6SM FEW100=

USA.gov is the U.S. government's official web portal to all federal, state and local government web resources and services.